Time;durP1;ratioP1;P1;durP2;ratioP2;P2;SDS_P1;SDS_P2;PMS_P1;PMS_P2;Temp;Humidity;BMP_temperature;BMP_pressure;BME280_temperature;BME280_humidity;BME280_pressure;Samples;Min_cycle;Max_cycle;Signal;HPM_P1;HPM_P2
2023/03/28 00:00:07;;;;;;;11.93;8.32;;;;;;;;;;4998839;28;20021;-78
2023/03/28 00:02:37;;;;;;;12.10;7.90;;;;;;;;;;4996212;28;20041;-78
2023/03/28 00:05:03;;;;;;;12.05;8.07;;;;;;;;;;4996358;28;20030;-78
2023/03/28 00:07:29;;;;;;;12.48;8.38;;;;;;;;;;4994368;28;20113;-78
2023/03/28 00:09:56;;;;;;;12.38;8.60;;;;;;;;;;4991303;28;20494;-79
2023/03/28 00:12:22;;;;;;;12.13;8.75;;;;;;;;;;4991751;28;20036;-79
2023/03/28 00:14:48;;;;;;;11.60;8.02;;;;;;;;;;4998492;28;20019;-79
2023/03/28 00:17:16;;;;;;;11.38;7.28;;;;;;;;;;4992423;28;20136;-79
2023/03/28 00:19:42;;;;;;;11.93;7.88;;;;;;;;;;4991661;28;20421;-79
2023/03/28 00:22:07;;;;;;;11.07;7.47;;;;;;;;;;4991683;28;20042;-78
2023/03/28 00:24:37;;;;;;;10.50;7.28;;;;;;;;;;4974881;28;20018;-79
2023/03/28 00:27:04;;;;;;;11.50;7.85;;;;;;;;;;4998023;28;20072;-79
2023/03/28 00:29:29;;;;;;;12.18;8.60;;;;;;;;;;4975254;28;20066;-78
2023/03/28 00:31:55;;;;;;;9.93;7.57;;;;;;;;;;4991572;28;20512;-79
2023/03/28 00:34:20;;;;;;;13.05;8.60;;;;;;;;;;4975273;28;20425;-78
2023/03/28 00:36:46;;;;;;;10.05;7.65;;;;;;;;;;4991646;28;20066;-79
2023/03/28 00:39:12;;;;;;;12.00;8.27;;;;;;;;;;4990135;28;20056;-79
2023/03/28 00:41:41;;;;;;;14.60;9.40;;;;;;;;;;4962202;28;20430;-78
2023/03/28 00:44:30;;;;;;;23.77;12.25;;;;;;;;;;4995180;28;20034;-78
2023/03/28 00:46:56;;;;;;;19.60;11.77;;;;;;;;;;4986287;28;20520;-79
2023/03/28 00:49:22;;;;;;;25.02;12.93;;;;;;;;;;4995140;28;20026;-78
2023/03/28 00:51:47;;;;;;;;;;;;;;;;;;4979232;28;20038;-78
2023/03/28 00:54:13;;;;;;;20.40;11.77;;;;;;;;;;4994687;28;20034;-78
2023/03/28 00:56:40;;;;;;;26.75;12.73;;;;;;;;;;4994897;28;20085;-79
2023/03/28 00:59:05;;;;;;;;;;;;;;;;;;4996886;28;20030;-79
2023/03/28 01:01:30;;;;;;;18.20;10.57;;;;;;;;;;4995697;28;20443;-78
2023/03/28 01:04:01;;;;;;;16.25;10.23;;;;;;;;;;4979059;28;20023;-78
2023/03/28 01:06:31;;;;;;;15.50;9.90;;;;;;;;;;4979568;28;20046;-79
2023/03/28 01:08:58;;;;;;;18.70;10.25;;;;;;;;;;4979177;28;20038;-78
2023/03/28 01:11:23;;;;;;;16.60;10.57;;;;;;;;;;4995160;28;20049;-79
2023/03/28 01:13:49;;;;;;;17.80;11.07;;;;;;;;;;4978400;28;20031;-79
2023/03/28 01:16:16;;;;;;;16.92;10.18;;;;;;;;;;4978637;28;20058;-79
2023/03/28 01:18:42;;;;;;;15.10;10.38;;;;;;;;;;4995570;28;20490;-78
2023/03/28 01:21:19;;;;;;;15.23;9.70;;;;;;;;;;4975434;28;20232;-79
2023/03/28 01:23:49;;;;;;;17.02;10.95;;;;;;;;;;4987399;28;20031;-78
2023/03/28 01:26:31;;;;;;;16.90;10.65;;;;;;;;;;4991801;28;20037;-79
2023/03/28 01:29:26;;;;;;;17.45;10.57;;;;;;;;;;4995388;28;20379;-78
2023/03/28 01:32:14;;;;;;;15.75;10.48;;;;;;;;;;4944180;28;20046;-79
2023/03/28 01:34:49;;;;;;;18.35;10.93;;;;;;;;;;4991399;28;20509;-79
2023/03/28 01:37:15;;;;;;;15.30;9.77;;;;;;;;;;4990558;28;20041;-78
2023/03/28 01:39:50;;;;;;;13.30;8.90;;;;;;;;;;4997714;28;20018;-79
2023/03/28 01:42:21;;;;;;;14.35;9.65;;;;;;;;;;4991752;28;20069;-79
2023/03/28 01:44:49;;;;;;;10.77;7.72;;;;;;;;;;4978886;28;20489;-79
2023/03/28 01:47:16;;;;;;;13.25;9.57;;;;;;;;;;4997044;28;20596;-79
2023/03/28 01:50:02;;;;;;;11.35;7.85;;;;;;;;;;4978971;28;20038;-79
2023/03/28 01:52:36;;;;;;;13.77;8.93;;;;;;;;;;4996266;28;20486;-79
2023/03/28 01:55:04;;;;;;;10.98;8.00;;;;;;;;;;4998409;28;20065;-79
2023/03/28 01:57:30;;;;;;;12.23;9.48;;;;;;;;;;4979424;28;20034;-79
2023/03/28 02:00:05;;;;;;;13.00;9.00;;;;;;;;;;4993123;28;20034;-79
2023/03/28 02:02:41;;;;;;;11.23;8.73;;;;;;;;;;4996281;28;20046;-79
2023/03/28 02:05:20;;;;;;;11.57;8.57;;;;;;;;;;4978658;28;20038;-79
2023/03/28 02:07:47;;;;;;;13.02;10.13;;;;;;;;;;4974867;28;20070;-79
2023/03/28 02:10:13;;;;;;;11.63;9.02;;;;;;;;;;4990143;28;20504;-79
2023/03/28 02:13:03;;;;;;;13.53;10.37;;;;;;;;;;4989796;28;20046;-80
2023/03/28 02:15:42;;;;;;;18.65;12.65;;;;;;;;;;4979064;28;20031;-79
2023/03/28 02:18:45;;;;;;;21.25;14.52;;;;;;;;;;4994034;28;20119;-80
2023/03/28 02:21:30;;;;;;;16.88;12.40;;;;;;;;;;4994746;28;20082;-79
2023/03/28 02:24:18;;;;;;;17.38;12.70;;;;;;;;;;4986560;28;20061;-79
2023/03/28 02:27:02;;;;;;;18.38;12.90;;;;;;;;;;4994523;28;20046;-79
2023/03/28 02:29:48;;;;;;;17.10;12.40;;;;;;;;;;4984593;28;20034;-79
2023/03/28 02:32:32;;;;;;;17.90;12.73;;;;;;;;;;4986199;28;20042;-79
2023/03/28 02:34:58;;;;;;;16.13;11.82;;;;;;;;;;4994668;28;20034;-78
2023/03/28 02:37:36;;;;;;;14.63;10.52;;;;;;;;;;4997411;28;20034;-79
2023/03/28 02:40:17;;;;;;;12.57;9.52;;;;;;;;;;4988187;28;20566;-79
2023/03/28 02:43:04;;;;;;;12.00;8.93;;;;;;;;;;4999140;28;20097;-79
2023/03/28 02:45:42;;;;;;;12.75;9.43;;;;;;;;;;5003013;28;20042;-79
2023/03/28 02:48:26;;;;;;;12.65;9.32;;;;;;;;;;4977679;28;20546;-79
2023/03/28 02:50:55;;;;;;;12.23;9.13;;;;;;;;;;5001903;28;20033;-79
2023/03/28 02:53:25;;;;;;;13.10;9.00;;;;;;;;;;4985688;28;20080;-79
2023/03/28 02:56:00;;;;;;;11.95;8.98;;;;;;;;;;5002888;28;20034;-79
2023/03/28 02:58:46;;;;;;;11.18;8.02;;;;;;;;;;4996154;28;20069;-80
2023/03/28 03:01:13;;;;;;;12.15;8.75;;;;;;;;;;4990910;28;20077;-79
2023/03/28 03:03:38;;;;;;;11.60;7.93;;;;;;;;;;4987016;28;20121;-79
2023/03/28 03:06:04;;;;;;;9.68;7.18;;;;;;;;;;4998825;28;20169;-79
2023/03/28 03:08:30;;;;;;;10.30;7.15;;;;;;;;;;5001623;28;20038;-78
2023/03/28 03:10:56;;;;;;;8.82;6.70;;;;;;;;;;4973198;28;20125;-77
2023/03/28 03:13:22;;;;;;;9.60;7.18;;;;;;;;;;4990638;28;20125;-80
2023/03/28 03:15:48;;;;;;;7.60;6.22;;;;;;;;;;5004184;28;20041;-80
2023/03/28 03:18:21;;;;;;;8.38;5.97;;;;;;;;;;4987342;28;20096;-79
2023/03/28 03:20:49;;;;;;;10.40;6.50;;;;;;;;;;5001033;28;20033;-79
2023/03/28 03:23:14;;;;;;;7.90;6.20;;;;;;;;;;5010441;28;20050;-77
2023/03/28 03:25:41;;;;;;;9.13;6.35;;;;;;;;;;4996891;28;20042;-78
2023/03/28 03:28:21;;;;;;;8.52;5.75;;;;;;;;;;4997186;28;20029;-78
2023/03/28 03:30:50;;;;;;;8.73;6.00;;;;;;;;;;5000196;28;20064;-78
2023/03/28 03:33:24;;;;;;;7.65;5.95;;;;;;;;;;4993707;28;20058;-78
2023/03/28 03:35:56;;;;;;;7.75;5.65;;;;;;;;;;4976718;28;20512;-78
2023/03/28 03:38:22;;;;;;;7.65;6.40;;;;;;;;;;4987691;28;20027;-78
2023/03/28 03:40:48;;;;;;;9.55;5.70;;;;;;;;;;4986176;28;20121;-78
2023/03/28 03:43:14;;;;;;;9.07;6.22;;;;;;;;;;4989711;28;20073;-78
2023/03/28 03:45:39;;;;;;;9.10;6.57;;;;;;;;;;4991908;28;20498;-78
2023/03/28 03:48:06;;;;;;;10.60;7.00;;;;;;;;;;5001683;28;20141;-78
2023/03/28 03:50:32;;;;;;;9.70;7.25;;;;;;;;;;4974703;28;20441;-78
2023/03/28 03:52:58;;;;;;;;;;;;;;;;;;4989864;28;20042;-78
2023/03/28 03:55:28;;;;;;;9.70;7.07;;;;;;;;;;4993328;28;19921;-78
2023/03/28 03:57:54;;;;;;;;;;;;;;;;;;4992087;28;20494;-78
2023/03/28 04:00:20;;;;;;;11.48;8.27;;;;;;;;;;4992212;28;20117;-78
2023/03/28 04:02:46;;;;;;;11.55;8.20;;;;;;;;;;4992163;28;20030;-78
2023/03/28 04:05:16;;;;;;;11.68;7.70;;;;;;;;;;4993174;28;20551;-78
2023/03/28 04:07:46;;;;;;;13.05;7.75;;;;;;;;;;4976433;28;20513;-79
2023/03/28 04:10:25;;;;;;;11.75;8.52;;;;;;;;;;4977606;28;20084;-78
2023/03/28 04:12:50;;;;;;;11.77;7.60;;;;;;;;;;4975689;28;21151;-78
2023/03/28 04:15:16;;;;;;;10.80;7.68;;;;;;;;;;4976170;28;20488;-78
2023/03/28 04:18:19;;;;;;;10.15;6.50;;;;;;;;;;4995987;28;20042;-79
2023/03/28 04:20:48;;;;;;;8.95;6.18;;;;;;;;;;4994481;28;20080;-79
2023/03/28 04:23:17;;;;;;;9.05;5.53;;;;;;;;;;4994960;28;20014;-78
2023/03/28 04:25:42;;;;;;;9.48;5.78;;;;;;;;;;4995169;28;20038;-78
2023/03/28 04:28:16;;;;;;;8.23;5.75;;;;;;;;;;4991861;28;20495;-79
2023/03/28 04:31:10;;;;;;;9.68;5.90;;;;;;;;;;4995956;28;20417;-79
2023/03/28 04:33:39;;;;;;;8.90;6.03;;;;;;;;;;4998469;28;20078;-78
2023/03/28 04:36:06;;;;;;;10.77;6.70;;;;;;;;;;4998465;28;20057;-78
2023/03/28 04:38:36;;;;;;;10.77;7.55;;;;;;;;;;4996359;28;20034;-78
2023/03/28 04:41:39;;;;;;;9.75;6.97;;;;;;;;;;4991030;28;20499;-79
2023/03/28 04:44:26;;;;;;;;;;;;;;;;;;4994849;28;20169;-78
2023/03/28 04:46:57;;;;;;;9.23;6.65;;;;;;;;;;4997180;28;19914;-78
2023/03/28 04:49:22;;;;;;;10.15;6.85;;;;;;;;;;5000197;28;20041;-79
2023/03/28 04:51:49;;;;;;;11.13;7.25;;;;;;;;;;4984514;28;20092;-79
2023/03/28 04:54:15;;;;;;;13.10;6.70;;;;;;;;;;4979455;28;20034;-79
2023/03/28 04:56:49;;;;;;;9.80;7.05;;;;;;;;;;4998967;28;20034;-79
2023/03/28 04:59:22;;;;;;;11.43;7.93;;;;;;;;;;4983680;28;20093;-79
2023/03/28 05:01:49;;;;;;;12.15;7.63;;;;;;;;;;4981685;28;20069;-79
2023/03/28 05:04:32;;;;;;;21.48;12.80;;;;;;;;;;4993836;28;20032;-79
2023/03/28 05:07:02;;;;;;;20.70;14.00;;;;;;;;;;4982850;28;20393;-78
2023/03/28 05:09:28;;;;;;;;;;;;;;;;;;4979713;28;20038;-79
2023/03/28 05:11:53;;;;;;;12.40;9.18;;;;;;;;;;4995523;28;19944;-78
2023/03/28 05:14:19;;;;;;;18.63;11.05;;;;;;;;;;4984664;28;20088;-77
2023/03/28 05:16:52;;;;;;;12.73;8.23;;;;;;;;;;4995475;28;20476;-79
2023/03/28 05:19:36;;;;;;;12.02;7.75;;;;;;;;;;4995961;28;20041;-79
2023/03/28 05:22:06;;;;;;;10.68;7.50;;;;;;;;;;4975867;28;20086;-78
2023/03/28 05:24:32;;;;;;;11.43;7.97;;;;;;;;;;4972949;28;20019;-79
2023/03/28 05:26:58;;;;;;;10.32;6.93;;;;;;;;;;4993611;28;20490;-79
2023/03/28 05:29:23;;;;;;;9.02;6.90;;;;;;;;;;4994524;28;20038;-79
2023/03/28 05:31:50;;;;;;;8.85;6.35;;;;;;;;;;4973540;28;20197;-79
2023/03/28 05:34:28;;;;;;;11.45;6.57;;;;;;;;;;4993509;28;20491;-78
2023/03/28 05:36:56;;;;;;;9.43;7.13;;;;;;;;;;4994505;28;20034;-79
2023/03/28 05:39:25;;;;;;;11.00;7.22;;;;;;;;;;4962840;28;20034;-78
2023/03/28 05:41:59;;;;;;;8.82;6.40;;;;;;;;;;4994327;28;20066;-79
2023/03/28 05:44:24;;;;;;;9.32;6.55;;;;;;;;;;4979696;28;20070;-79
2023/03/28 05:47:16;;;;;;;8.82;6.72;;;;;;;;;;4992616;28;20069;-79
2023/03/28 05:49:41;;;;;;;8.18;6.53;;;;;;;;;;4993109;28;20124;-79
2023/03/28 05:52:08;;;;;;;10.95;8.00;;;;;;;;;;4977140;28;20121;-79
2023/03/28 05:54:34;;;;;;;7.47;5.78;;;;;;;;;;4992061;28;20193;-79
2023/03/28 05:56:59;;;;;;;8.75;6.13;;;;;;;;;;4965844;28;20565;-78
2023/03/28 05:59:26;;;;;;;8.73;6.30;;;;;;;;;;5003804;28;20481;-78
2023/03/28 06:01:51;;;;;;;11.90;6.10;;;;;;;;;;4998018;28;20034;-79
2023/03/28 06:04:21;;;;;;;9.13;6.50;;;;;;;;;;4986072;28;20101;-78
2023/03/28 06:06:49;;;;;;;8.13;6.13;;;;;;;;;;4981994;28;20513;-78
2023/03/28 06:09:18;;;;;;;9.32;7.20;;;;;;;;;;4969607;28;20069;-78
2023/03/28 06:11:53;;;;;;;11.43;6.88;;;;;;;;;;4999034;28;20026;-79
2023/03/28 06:14:18;;;;;;;8.52;6.90;;;;;;;;;;5002720;28;20060;-81
2023/03/28 06:16:44;;;;;;;10.63;7.18;;;;;;;;;;5001598;28;20113;-79
2023/03/28 06:19:10;;;;;;;9.55;7.90;;;;;;;;;;5003488;28;20034;-79
2023/03/28 06:21:35;;;;;;;11.25;8.13;;;;;;;;;;5002111;28;20018;-80
2023/03/28 06:24:05;;;;;;;18.58;12.45;;;;;;;;;;5003899;28;20037;-81
2023/03/28 06:26:35;;;;;;;11.45;8.23;;;;;;;;;;4987832;28;20030;-79
2023/03/28 06:29:01;;;;;;;11.65;7.82;;;;;;;;;;4987205;28;20565;-79
2023/03/28 06:31:41;;;;;;;10.85;7.40;;;;;;;;;;4991565;28;20037;-79
2023/03/28 06:34:06;;;;;;;9.23;6.50;;;;;;;;;;4993030;28;20062;-79
2023/03/28 06:36:35;;;;;;;9.10;7.22;;;;;;;;;;4991759;28;20038;-80
2023/03/28 06:39:00;;;;;;;8.90;7.07;;;;;;;;;;4993063;28;20034;-80
2023/03/28 06:41:28;;;;;;;11.85;7.50;;;;;;;;;;4976331;28;20106;-80
2023/03/28 06:43:53;;;;;;;10.88;8.40;;;;;;;;;;4992577;28;20121;-80
2023/03/28 06:46:48;;;;;;;10.02;6.88;;;;;;;;;;4975229;28;20026;-80
2023/03/28 06:49:14;;;;;;;9.15;7.05;;;;;;;;;;4992275;28;20041;-79
2023/03/28 06:52:00;;;;;;;10.13;6.63;;;;;;;;;;4984972;28;20064;-79
2023/03/28 06:54:26;;;;;;;7.95;6.53;;;;;;;;;;4993966;28;20033;-79
2023/03/28 06:56:52;;;;;;;8.60;6.70;;;;;;;;;;4992589;28;20535;-79
2023/03/28 06:59:17;;;;;;;8.23;6.32;;;;;;;;;;4992090;28;20128;-80
2023/03/28 07:01:48;;;;;;;8.45;6.43;;;;;;;;;;4992868;28;20026;-79
2023/03/28 07:04:16;;;;;;;8.10;6.35;;;;;;;;;;4976525;28;20030;-79
2023/03/28 07:06:44;;;;;;;12.85;6.78;;;;;;;;;;4993013;28;20022;-79
2023/03/28 07:09:10;;;;;;;8.98;5.75;;;;;;;;;;4992450;28;20042;-79
2023/03/28 07:11:39;;;;;;;8.45;6.00;;;;;;;;;;4977749;28;20034;-79
2023/03/28 07:14:05;;;;;;;7.53;5.65;;;;;;;;;;4973484;28;20521;-80
2023/03/28 07:16:30;;;;;;;6.55;5.57;;;;;;;;;;4970819;28;20110;-81
2023/03/28 07:18:56;;;;;;;7.47;5.80;;;;;;;;;;4970067;28;20034;-80
2023/03/28 07:21:29;;;;;;;7.20;5.75;;;;;;;;;;4992361;28;20143;-79
2023/03/28 07:23:57;;;;;;;7.78;5.78;;;;;;;;;;4993711;28;20034;-79
2023/03/28 07:26:27;;;;;;;6.53;5.32;;;;;;;;;;4991565;28;20018;-78
2023/03/28 07:28:55;;;;;;;6.30;4.78;;;;;;;;;;4991677;28;20038;-80
2023/03/28 07:31:21;;;;;;;7.40;4.88;;;;;;;;;;4992557;28;20034;-81
2023/03/28 07:33:48;;;;;;;7.63;4.80;;;;;;;;;;4989301;28;20581;-79
2023/03/28 07:36:14;;;;;;;8.02;5.15;;;;;;;;;;4974792;28;20030;-80
2023/03/28 07:38:42;;;;;;;5.82;4.32;;;;;;;;;;4978010;28;20034;-80
2023/03/28 07:41:08;;;;;;;6.03;3.70;;;;;;;;;;4994946;28;20429;-79
2023/03/28 07:43:34;;;;;;;6.28;3.80;;;;;;;;;;4993613;28;20053;-79
2023/03/28 07:46:01;;;;;;;5.00;3.92;;;;;;;;;;4996490;28;20465;-81
2023/03/28 07:48:26;;;;;;;4.65;3.53;;;;;;;;;;4976300;28;20528;-79
2023/03/28 07:50:52;;;;;;;5.28;3.78;;;;;;;;;;4982687;28;20068;-80
2023/03/28 07:53:18;;;;;;;7.60;3.38;;;;;;;;;;4999072;28;20116;-80
2023/03/28 07:55:44;;;;;;;;;;;;;;;;;;5001056;28;20157;-79
2023/03/28 07:58:10;;;;;;;5.93;3.10;;;;;;;;;;5025117;28;19980;-79
2023/03/28 08:00:39;;;;;;;6.63;4.15;;;;;;;;;;5001632;28;20025;-80
2023/03/28 08:03:34;;;;;;;3.72;2.83;;;;;;;;;;4998372;28;20584;-79
2023/03/28 08:06:04;;;;;;;6.13;3.40;;;;;;;;;;4985740;28;20080;-80
2023/03/28 08:08:32;;;;;;;4.35;2.80;;;;;;;;;;5001259;28;20125;-78
2023/03/28 08:11:11;;;;;;;3.97;2.63;;;;;;;;;;5004860;28;20037;-80
2023/03/28 08:13:36;;;;;;;6.80;3.22;;;;;;;;;;5002704;28;20477;-80
2023/03/28 08:16:08;;;;;;;5.00;3.17;;;;;;;;;;4990769;28;20029;-79
2023/03/28 08:18:33;;;;;;;;;;;;;;;;;;4988266;28;20030;-79
2023/03/28 08:21:00;;;;;;;6.60;3.40;;;;;;;;;;5007440;28;19945;-79
2023/03/28 08:23:30;;;;;;;5.25;2.60;;;;;;;;;;5005330;28;20116;-79
2023/03/28 08:26:13;;;;;;;6.80;2.83;;;;;;;;;;4988640;28;20065;-79
2023/03/28 08:28:43;;;;;;;4.15;2.40;;;;;;;;;;4983354;28;20077;-79
2023/03/28 08:31:12;;;;;;;;;;;;;;;;;;5002289;28;20039;-79
2023/03/28 08:33:39;;;;;;;9.27;2.90;;;;;;;;;;5032581;28;19921;-80
2023/03/28 08:36:05;;;;;;;7.43;3.17;;;;;;;;;;4972998;28;20039;-80
2023/03/28 08:38:31;;;;;;;10.85;3.70;;;;;;;;;;4991803;28;20114;-80
2023/03/28 08:40:57;;;;;;;;;;;;;;;;;;4991774;28;20069;-80
2023/03/28 08:43:31;;;;;;;23.38;3.38;;;;;;;;;;4992127;28;20017;-81
2023/03/28 08:45:58;;;;;;;8.27;2.55;;;;;;;;;;4976579;28;20033;-80
2023/03/28 08:48:25;;;;;;;8.55;2.88;;;;;;;;;;4994194;28;20026;-79
2023/03/28 08:50:55;;;;;;;5.38;2.42;;;;;;;;;;4976604;28;20107;-80
2023/03/28 08:53:42;;;;;;;6.07;2.50;;;;;;;;;;4976209;28;20391;-80
2023/03/28 08:56:08;;;;;;;5.43;2.70;;;;;;;;;;4993831;28;20042;-81
2023/03/28 08:58:34;;;;;;;;;;;;;;;;;;4977857;28;20041;-80
2023/03/28 09:00:59;;;;;;;9.88;2.80;;;;;;;;;;5027951;28;20003;-79
2023/03/28 09:03:25;;;;;;;9.93;2.60;;;;;;;;;;4979383;28;20532;-79
2023/03/28 09:06:06;;;;;;;15.07;2.85;;;;;;;;;;4994346;28;20049;-79
2023/03/28 09:08:36;;;;;;;14.77;3.33;;;;;;;;;;4980227;28;20066;-79
2023/03/28 09:11:05;;;;;;;11.90;2.80;;;;;;;;;;4981446;28;20066;-79
2023/03/28 09:13:35;;;;;;;5.00;2.05;;;;;;;;;;4996555;28;20022;-80
2023/03/28 09:16:19;;;;;;;10.10;1.75;;;;;;;;;;4998451;28;20476;-79
2023/03/28 09:19:09;;;;;;;15.23;2.72;;;;;;;;;;4997491;28;20084;-79
2023/03/28 09:21:37;;;;;;;9.82;2.42;;;;;;;;;;4981133;28;20057;-78
2023/03/28 09:24:02;;;;;;;;;;;;;;;;;;4997699;28;20034;-78
2023/03/28 09:27:02;;;;;;;19.63;3.50;;;;;;;;;;4995556;28;19914;-78
2023/03/28 09:29:31;;;;;;;11.23;2.33;;;;;;;;;;4996447;28;20433;-78
2023/03/28 09:32:03;;;;;;;12.90;2.38;;;;;;;;;;4978100;28;20030;-79
2023/03/28 09:34:37;;;;;;;8.68;2.67;;;;;;;;;;4996065;28;20192;-80
2023/03/28 09:37:15;;;;;;;6.97;2.22;;;;;;;;;;4977760;28;20042;-79
2023/03/28 09:39:47;;;;;;;12.50;2.13;;;;;;;;;;4994204;28;20077;-80
2023/03/28 09:42:16;;;;;;;12.82;2.28;;;;;;;;;;4979082;28;20038;-80
2023/03/28 09:45:05;;;;;;;6.80;1.80;;;;;;;;;;4994544;28;20069;-81
2023/03/28 09:47:49;;;;;;;9.05;2.22;;;;;;;;;;4987844;28;20061;-80
2023/03/28 09:50:18;;;;;;;16.80;2.70;;;;;;;;;;4979500;28;20030;-80
2023/03/28 09:52:52;;;;;;;7.63;2.22;;;;;;;;;;4993829;28;20025;-80
2023/03/28 09:55:19;;;;;;;21.35;2.97;;;;;;;;;;4978680;28;20088;-81
2023/03/28 09:58:05;;;;;;;18.77;3.22;;;;;;;;;;4973991;28;20023;-79
2023/03/28 10:00:41;;;;;;;12.60;2.78;;;;;;;;;;4994626;28;20037;-80
2023/03/28 10:03:30;;;;;;;20.65;3.15;;;;;;;;;;4995708;28;20045;-80
2023/03/28 10:05:57;;;;;;;16.80;3.40;;;;;;;;;;4994845;28;20056;-81
2023/03/28 10:08:34;;;;;;;19.08;3.20;;;;;;;;;;5000313;28;20085;-79
2023/03/28 10:11:21;;;;;;;19.00;3.20;;;;;;;;;;4986144;28;20078;-80
2023/03/28 10:13:48;;;;;;;6.68;2.30;;;;;;;;;;4999598;28;20509;-79
2023/03/28 10:16:27;;;;;;;7.43;2.17;;;;;;;;;;4999068;28;20401;-81
2023/03/28 10:19:00;;;;;;;28.60;3.33;;;;;;;;;;4998155;28;20418;-79
2023/03/28 10:21:46;;;;;;;30.70;3.63;;;;;;;;;;5005114;28;20381;-81
2023/03/28 10:24:14;;;;;;;29.02;3.60;;;;;;;;;;5005694;28;20030;-81
2023/03/28 10:26:46;;;;;;;10.07;2.33;;;;;;;;;;5000769;28;20026;-80
2023/03/28 10:29:11;;;;;;;7.05;1.63;;;;;;;;;;4984895;28;20036;-80
2023/03/28 10:31:38;;;;;;;8.32;1.95;;;;;;;;;;4998660;28;20029;-80
2023/03/28 10:34:28;;;;;;;22.00;2.90;;;;;;;;;;4977290;28;20059;-78
2023/03/28 10:37:22;;;;;;;13.57;2.88;;;;;;;;;;4995550;28;20053;-81
2023/03/28 10:40:00;;;;;;;13.98;2.35;;;;;;;;;;4964879;28;20034;-79
2023/03/28 10:42:58;;;;;;;13.98;2.25;;;;;;;;;;4996515;28;20035;-79
2023/03/28 10:45:36;;;;;;;22.23;3.20;;;;;;;;;;4994114;28;20046;-80
2023/03/28 10:48:16;;;;;;;9.63;2.47;;;;;;;;;;4979066;28;20093;-80
2023/03/28 10:50:46;;;;;;;15.02;2.17;;;;;;;;;;4976663;28;20062;-81
2023/03/28 10:53:31;;;;;;;14.43;2.10;;;;;;;;;;4993827;28;20133;-80
2023/03/28 10:56:05;;;;;;;14.02;2.85;;;;;;;;;;4974415;28;20038;-81
2023/03/28 10:58:40;;;;;;;13.63;2.60;;;;;;;;;;4971508;28;20506;-79
2023/03/28 11:01:17;;;;;;;16.55;2.95;;;;;;;;;;4993765;28;20172;-80
2023/03/28 11:03:51;;;;;;;8.98;2.10;;;;;;;;;;4993160;28;20408;-80
2023/03/28 11:06:21;;;;;;;19.77;2.75;;;;;;;;;;4992878;28;20120;-80
2023/03/28 11:09:06;;;;;;;18.60;2.92;;;;;;;;;;4976544;28;20038;-80
2023/03/28 11:11:58;;;;;;;24.33;2.92;;;;;;;;;;4992650;28;20038;-79
2023/03/28 11:14:27;;;;;;;7.80;1.80;;;;;;;;;;4975872;28;20042;-79
2023/03/28 11:16:53;;;;;;;15.15;2.33;;;;;;;;;;4975918;28;20034;-80
2023/03/28 11:19:38;;;;;;;11.10;2.53;;;;;;;;;;4992520;28;20034;-80
2023/03/28 11:22:23;;;;;;;15.88;2.38;;;;;;;;;;4992046;28;20034;-80
2023/03/28 11:24:55;;;;;;;10.70;2.22;;;;;;;;;;4990996;28;20034;-81
2023/03/28 11:27:50;;;;;;;13.70;2.92;;;;;;;;;;4990181;28;20046;-81
2023/03/28 11:30:32;;;;;;;9.40;2.00;;;;;;;;;;4998316;28;20030;-81
2023/03/28 11:33:34;;;;;;;22.63;3.00;;;;;;;;;;4987230;28;20054;-79
2023/03/28 11:36:07;;;;;;;7.50;2.00;;;;;;;;;;4993526;28;20452;-80
2023/03/28 11:38:38;;;;;;;12.55;2.50;;;;;;;;;;4985199;28;20413;-80
2023/03/28 11:41:20;;;;;;;11.27;2.47;;;;;;;;;;4983892;28;20030;-80
2023/03/28 11:44:17;;;;;;;7.80;2.20;;;;;;;;;;4983829;28;20042;-80
2023/03/28 11:46:45;;;;;;;15.15;3.08;;;;;;;;;;4995805;28;20417;-79
2023/03/28 11:49:17;;;;;;;17.25;3.00;;;;;;;;;;4984548;28;20386;-81
2023/03/28 11:51:44;;;;;;;10.07;2.92;;;;;;;;;;5000968;28;20048;-79
2023/03/28 11:54:23;;;;;;;12.80;3.30;;;;;;;;;;4986613;28;20606;-79
2023/03/28 11:56:56;;;;;;;8.05;2.70;;;;;;;;;;4983408;28;20536;-79
2023/03/28 11:59:45;;;;;;;20.23;4.15;;;;;;;;;;5011250;28;20105;-79
2023/03/28 12:02:17;;;;;;;17.02;3.50;;;;;;;;;;4986665;28;20404;-79
2023/03/28 12:04:52;;;;;;;11.80;2.97;;;;;;;;;;4987908;28;20038;-79
2023/03/28 12:07:22;;;;;;;19.40;3.72;;;;;;;;;;5005517;28;20061;-79
2023/03/28 12:09:55;;;;;;;22.83;4.10;;;;;;;;;;4986025;28;20061;-79
2023/03/28 12:12:26;;;;;;;25.10;4.72;;;;;;;;;;4989222;28;20092;-79
2023/03/28 12:15:16;;;;;;;24.52;4.22;;;;;;;;;;4993204;28;20089;-79
2023/03/28 12:17:54;;;;;;;17.80;3.88;;;;;;;;;;4986247;28;20042;-79
2023/03/28 12:20:28;;;;;;;10.75;3.60;;;;;;;;;;4960362;28;20117;-79
2023/03/28 12:22:54;;;;;;;20.55;4.78;;;;;;;;;;4977056;28;20045;-80
2023/03/28 12:25:49;;;;;;;11.52;3.92;;;;;;;;;;4994258;28;20458;-80
2023/03/28 12:28:25;;;;;;;11.70;3.57;;;;;;;;;;4979633;28;20077;-80
2023/03/28 12:30:57;;;;;;;14.80;4.60;;;;;;;;;;4981176;28;20836;-80
2023/03/28 12:33:47;;;;;;;13.77;3.78;;;;;;;;;;4985894;28;20498;-79
2023/03/28 12:36:34;;;;;;;19.67;3.80;;;;;;;;;;4995775;28;20046;-80
2023/03/28 12:39:21;;;;;;;15.07;3.45;;;;;;;;;;5004200;28;20041;-80
2023/03/28 12:41:47;;;;;;;15.63;3.75;;;;;;;;;;5004614;28;20037;-80
2023/03/28 12:44:14;;;;;;;20.25;5.15;;;;;;;;;;4984857;28;20030;-80
2023/03/28 12:46:48;;;;;;;19.92;3.65;;;;;;;;;;5000258;28;20030;-80
2023/03/28 12:49:27;;;;;;;7.93;2.50;;;;;;;;;;4981856;28;20026;-80
2023/03/28 12:51:56;;;;;;;29.52;4.10;;;;;;;;;;4998605;28;20501;-80
2023/03/28 12:54:22;;;;;;;20.45;3.50;;;;;;;;;;4998878;28;20596;-80
2023/03/28 12:57:03;;;;;;;18.13;3.63;;;;;;;;;;4980368;28;20074;-80
2023/03/28 12:59:40;;;;;;;19.95;3.30;;;;;;;;;;4986708;28;20034;-80
2023/03/28 13:02:15;;;;;;;17.20;3.53;;;;;;;;;;4999035;28;20069;-80
2023/03/28 13:05:14;;;;;;;31.23;4.22;;;;;;;;;;4999550;28;20049;-80
2023/03/28 13:07:59;;;;;;;22.83;3.83;;;;;;;;;;4992113;28;20050;-78
2023/03/28 13:10:30;;;;;;;16.15;3.40;;;;;;;;;;5004915;28;20037;-79
2023/03/28 13:12:59;;;;;;;21.05;3.70;;;;;;;;;;5004617;28;20533;-78
2023/03/28 13:15:31;;;;;;;11.07;2.70;;;;;;;;;;5007374;28;20018;-79
2023/03/28 13:18:18;;;;;;;19.25;3.40;;;;;;;;;;4989431;28;20445;-78
2023/03/28 13:20:44;;;;;;;14.70;3.10;;;;;;;;;;5006066;28;20034;-80
2023/03/28 13:23:11;;;;;;;18.05;3.83;;;;;;;;;;5012157;28;20268;-79
2023/03/28 13:25:36;;;;;;;10.40;2.70;;;;;;;;;;4993647;28;20046;-79
2023/03/28 13:28:11;;;;;;;12.63;2.38;;;;;;;;;;5010172;28;20078;-79
2023/03/28 13:30:37;;;;;;;10.63;2.20;;;;;;;;;;4980426;28;20062;-79
2023/03/28 13:33:06;;;;;;;15.65;2.70;;;;;;;;;;5006637;28;20404;-80
2023/03/28 13:35:45;;;;;;;18.85;2.58;;;;;;;;;;5008043;28;20041;-81
2023/03/28 13:38:14;;;;;;;14.23;2.83;;;;;;;;;;5000771;28;20046;-80
2023/03/28 13:40:39;;;;;;;13.50;2.70;;;;;;;;;;5005298;28;20032;-80
2023/03/28 13:43:43;;;;;;;13.93;2.67;;;;;;;;;;5005505;28;20121;-79
2023/03/28 13:46:24;;;;;;;17.35;3.13;;;;;;;;;;4986624;28;20031;-79
2023/03/28 13:49:09;;;;;;;11.00;2.70;;;;;;;;;;4983864;28;20079;-79
2023/03/28 13:51:53;;;;;;;16.58;2.60;;;;;;;;;;4997977;28;20034;-80
2023/03/28 13:54:18;;;;;;;13.45;2.30;;;;;;;;;;5008772;28;20061;-79
2023/03/28 13:56:45;;;;;;;12.70;2.97;;;;;;;;;;5005470;28;20030;-80
2023/03/28 13:59:31;;;;;;;11.63;2.70;;;;;;;;;;4988080;28;20042;-79
2023/03/28 14:01:58;;;;;;;8.90;2.10;;;;;;;;;;5003587;28;20054;-79
2023/03/28 14:04:28;;;;;;;6.28;2.35;;;;;;;;;;5009108;28;20037;-79
2023/03/28 14:06:53;;;;;;;8.73;2.45;;;;;;;;;;5021749;28;20094;-81
2023/03/28 14:09:29;;;;;;;13.60;2.40;;;;;;;;;;5003360;28;20038;-79
2023/03/28 14:11:55;;;;;;;13.73;2.50;;;;;;;;;;4990924;28;20030;-79
2023/03/28 14:14:39;;;;;;;19.75;2.80;;;;;;;;;;5008705;28;20056;-80
2023/03/28 14:17:05;;;;;;;13.80;2.63;;;;;;;;;;5007439;28;20042;-80
2023/03/28 14:19:41;;;;;;;15.90;2.70;;;;;;;;;;5007441;28;20038;-80
2023/03/28 14:22:08;;;;;;;15.32;2.88;;;;;;;;;;5005149;28;20038;-79
2023/03/28 14:24:34;;;;;;;12.93;2.60;;;;;;;;;;5009929;28;20109;-79
2023/03/28 14:27:09;;;;;;;16.20;2.90;;;;;;;;;;5007627;28;20097;-79
2023/03/28 14:29:35;;;;;;;14.48;2.50;;;;;;;;;;5011142;28;20129;-79
2023/03/28 14:32:02;;;;;;;15.18;3.00;;;;;;;;;;5000674;28;20033;-79
2023/03/28 14:34:37;;;;;;;21.25;3.10;;;;;;;;;;5009405;28;20063;-80
2023/03/28 14:37:05;;;;;;;17.77;3.40;;;;;;;;;;5009165;28;20034;-80
2023/03/28 14:39:34;;;;;;;14.45;2.90;;;;;;;;;;5010910;28;20041;-80
2023/03/28 14:42:00;;;;;;;16.33;2.45;;;;;;;;;;5009495;28;20122;-79
2023/03/28 14:44:26;;;;;;;8.05;2.15;;;;;;;;;;5010833;28;20105;-81
2023/03/28 14:46:53;;;;;;;10.85;2.40;;;;;;;;;;5007489;28;20073;-80
2023/03/28 14:49:19;;;;;;;14.88;3.45;;;;;;;;;;4994993;28;20082;-80
2023/03/28 14:51:45;;;;;;;13.02;3.65;;;;;;;;;;5009564;28;20409;-80
2023/03/28 14:54:13;;;;;;;9.88;3.75;;;;;;;;;;5011768;28;20389;-80
2023/03/28 14:56:38;;;;;;;20.25;3.53;;;;;;;;;;5008653;28;20069;-80
2023/03/28 14:59:04;;;;;;;25.35;4.65;;;;;;;;;;5001220;28;20026;-80
2023/03/28 15:01:30;;;;;;;12.50;3.47;;;;;;;;;;5004508;28;20030;-79
2023/03/28 15:03:55;;;;;;;;;;;;;;;;;;5004561;28;20057;-79
2023/03/28 15:06:21;;;;;;;38.20;4.40;;;;;;;;;;5000096;28;19918;-79
2023/03/28 15:08:46;;;;;;;13.75;2.92;;;;;;;;;;5000954;28;20026;-80